Time;durP1;ratioP1;P1;durP2;ratioP2;P2;SDS_P1;SDS_P2;PMS_P1;PMS_P2;Temp;Humidity;BMP_temperature;BMP_pressure;BME280_temperature;BME280_humidity;BME280_pressure;Samples;Min_cycle;Max_cycle;Signal;HPM_P1;HPM_P2
2023/05/28 00:10:39;;;;;;;10.95;3.15;;;;;;;9.86;51.26;100755.28;30978939;28;96850;-66
2023/05/28 00:25:40;;;;;;;5.88;2.80;;;;;;;9.69;51.58;100747.13;30994228;28;96742;-66
2023/05/28 00:40:44;;;;;;;7.90;4.50;;;;;;;9.51;52.04;100741.78;30994116;28;97229;-68
2023/05/28 00:55:45;;;;;;;8.53;4.53;;;;;;;9.34;52.58;100735.44;30992800;28;96705;-67
2023/05/28 01:10:46;;;;;;;9.27;4.35;;;;;;;9.19;53.08;100721.81;30991116;28;96759;-67
2023/05/28 01:25:56;;;;;;;9.67;5.93;;;;;;;8.98;53.47;100706.94;30989462;28;97173;-66
2023/05/28 01:40:57;;;;;;;6.83;3.90;;;;;;;8.80;54.24;100704.25;30988502;28;96913;-67
2023/05/28 01:55:57;;;;;;;7.43;4.22;;;;;;;8.68;54.50;100696.59;30987234;28;96725;-67
2023/05/28 02:10:59;;;;;;;7.35;3.83;;;;;;;8.51;54.36;100690.22;30984851;28;96618;-67
2023/05/28 02:26:00;;;;;;;7.07;3.63;;;;;;;8.12;55.29;100680.50;30983744;28;97315;-66
2023/05/28 02:41:01;;;;;;;7.00;3.63;;;;;;;7.72;56.40;100695.63;30981619;28;96700;-67
2023/05/28 02:56:01;;;;;;;7.40;3.40;;;;;;;7.52;57.54;100688.59;30981201;28;103556;-67
2023/05/28 03:11:01;;;;;;;7.97;3.83;;;;;;;7.46;58.09;100703.25;30979124;28;96689;-67
2023/05/28 03:26:02;;;;;;;10.85;3.70;;;;;;;7.48;57.79;100703.09;30978582;28;96677;-67
2023/05/28 03:41:02;;;;;;;10.55;3.42;;;;;;;7.75;58.08;100702.44;30977289;28;97505;-67
2023/05/28 03:56:03;;;;;;;7.07;3.25;;;;;;;8.15;58.39;100706.75;30995917;28;96730;-67
2023/05/28 04:11:03;;;;;;;7.43;4.18;;;;;;;8.49;57.78;100702.78;30996541;28;96537;-66
2023/05/28 04:26:06;;;;;;;8.85;4.18;;;;;;;8.95;57.61;100699.28;30995316;28;96663;-67
2023/05/28 04:41:06;;;;;;;7.97;3.43;;;;;;;9.44;56.70;100706.97;30993861;28;96948;-67
2023/05/28 04:56:07;;;;;;;7.75;3.20;;;;;;;9.97;56.15;100701.81;30991439;28;96926;-67
2023/05/28 05:11:08;;;;;;;7.15;3.58;;;;;;;10.50;55.01;100700.88;30989803;28;96758;-67
2023/05/28 05:26:16;;;;;;;7.40;3.37;;;;;;;11.20;53.73;100704.38;30988136;28;97196;-67
2023/05/28 05:41:17;;;;;;;9.97;3.77;;;;;;;11.96;52.35;100702.53;30986777;28;97632;-67
2023/05/28 05:56:17;;;;;;;6.68;2.95;;;;;;;12.59;51.43;100693.94;30983932;28;96887;-67
2023/05/28 06:11:18;;;;;;;6.20;3.40;;;;;;;13.47;50.44;100700.13;30982186;28;97507;-67
2023/05/28 06:26:18;;;;;;;6.05;2.53;;;;;;;14.25;48.15;100686.63;30983371;28;96566;-67
2023/05/28 06:41:18;;;;;;;8.10;3.03;;;;;;;15.10;46.54;100696.06;30981329;28;99433;-67
2023/05/28 06:56:19;;;;;;;5.38;2.80;;;;;;;16.13;44.81;100693.22;30980714;28;96836;-67
2023/05/28 07:11:19;;;;;;;5.43;2.67;;;;;;;17.20;42.66;100701.94;30978717;28;103182;-67
2023/05/28 07:26:20;;;;;;;11.05;2.20;;;;;;;18.25;40.12;100692.59;30976949;28;97516;-67
2023/05/28 07:41:21;;;;;;;3.72;1.70;;;;;;;18.94;36.73;100682.28;30975012;28;96627;-68
2023/05/28 07:56:21;;;;;;;4.23;1.83;;;;;;;19.71;35.73;100667.94;30973225;28;98534;-67
2023/05/28 08:11:22;;;;;;;2.97;1.73;;;;;;;20.24;32.38;100653.19;30973572;28;97206;-68
2023/05/28 08:26:22;;;;;;;3.58;1.60;;;;;;;20.81;31.76;100642.19;30972903;28;100682;-67
2023/05/28 08:41:23;;;;;;;6.30;1.60;;;;;;;21.87;29.90;100641.72;30988319;28;96703;-68
2023/05/28 08:56:25;;;;;;;4.70;1.43;;;;;;;23.05;27.82;100638.03;30990270;28;96735;-67
2023/05/28 09:11:26;;;;;;;3.77;1.43;;;;;;;23.95;25.56;100638.28;30988920;28;97095;-68
2023/05/28 09:26:31;;;;;;;3.30;1.20;;;;;;;24.58;25.05;100618.19;30988370;28;97406;-67
2023/05/28 09:41:33;;;;;;;2.93;1.20;;;;;;;25.08;23.90;100613.59;30987713;28;96696;-68
2023/05/28 09:56:34;;;;;;;6.50;1.33;;;;;;;25.76;22.65;100604.94;30984724;28;96710;-68
2023/05/28 10:11:48;;;;;;;3.10;1.35;;;;;;;26.10;21.55;100599.19;30983261;28;97612;-68
2023/05/28 10:26:48;;;;;;;2.50;1.20;;;;;;;26.42;20.97;100590.06;30982431;28;96707;-67
2023/05/28 10:41:49;;;;;;;2.47;1.15;;;;;;;26.88;20.52;100576.59;30981680;28;97027;-68
2023/05/28 10:57:11;;;;;;;3.75;1.20;;;;;;;27.12;19.92;100571.44;30979161;28;97488;-67
2023/05/28 11:12:12;;;;;;;5.33;1.20;;;;;;;27.10;19.83;100561.84;30977120;28;96645;-67
2023/05/28 11:27:13;;;;;;;5.10;1.20;;;;;;;27.13;18.81;100566.78;30976196;28;97410;-65
2023/05/28 11:42:14;;;;;;;1.80;1.00;;;;;;;27.46;19.14;100542.72;30975045;28;96677;-67
2023/05/28 11:57:23;;;;;;;3.78;1.58;;;;;;;26.96;19.07;100526.84;30974577;28;96792;-68
2023/05/28 12:12:27;;;;;;;5.87;1.20;;;;;;;27.21;18.84;100514.28;30987383;28;97331;-68
2023/05/28 12:27:27;;;;;;;3.50;1.30;;;;;;;26.77;18.45;100520.28;30994685;28;96699;-67
2023/05/28 12:42:27;;;;;;;5.97;3.13;;;;;;;26.90;17.55;100503.34;30991782;28;114007;-65
2023/05/28 12:57:28;;;;;;;3.28;1.52;;;;;;;26.02;18.69;100483.94;30990134;28;109141;-67
2023/05/28 13:12:28;;;;;;;2.38;1.42;;;;;;;25.56;19.76;100486.44;30987902;28;108373;-67
2023/05/28 13:27:28;;;;;;;3.70;1.25;;;;;;;25.26;19.15;100474.19;30987641;28;96738;-67
2023/05/28 13:42:29;;;;;;;8.60;1.50;;;;;;;25.10;19.73;100453.34;30987036;28;109340;-66
2023/05/28 13:57:29;;;;;;;2.33;1.10;;;;;;;25.07;19.45;100440.22;30985378;28;97303;-65
2023/05/28 14:12:29;;;;;;;3.97;1.52;;;;;;;24.66;19.64;100430.66;30982524;28;96777;-67
2023/05/28 14:27:30;;;;;;;2.72;1.30;;;;;;;24.20;19.65;100418.44;30980429;28;100809;-64
2023/05/28 14:42:30;;;;;;;3.38;1.17;;;;;;;23.99;20.71;100407.34;30981261;28;97059;-64
2023/05/28 14:57:32;;;;;;;5.00;1.38;;;;;;;23.64;21.27;100392.19;30979521;28;97246;-67
2023/05/28 15:12:32;;;;;;;3.00;1.10;;;;;;;23.06;21.20;100383.47;30978109;28;96729;-66
2023/05/28 15:27:32;;;;;;;;;;;;;;;22.68;22.31;100380.44;30976902;28;97492;-66
2023/05/28 15:42:34;;;;;;;;;;;;;;;22.63;23.00;100386.59;30984162;28;97295;-68
2023/05/28 15:57:34;;;;;;;;;;;;;;;22.48;23.26;100375.47;30998638;28;97005;-68
2023/05/28 16:12:35;;;;;;;;;;;;;;;22.29;23.84;100367.53;30995020;28;99096;-66
2023/05/28 16:27:36;;;;;;;;;;;;;;;22.10;24.27;100363.38;30996259;28;97409;-68
2023/05/28 16:42:37;;;;;;;;;;;;;;;21.74;24.63;100354.53;30993942;28;97084;-69
2023/05/28 16:57:37;;;;;;;;;;;;;;;21.38;25.41;100361.88;30991625;28;97541;-68
2023/05/28 17:12:38;;;;;;;;;;;;;;;21.01;26.06;100365.69;30990348;28;97087;-67
2023/05/28 17:27:38;;;;;;;;;;;;;;;20.71;26.50;100363.06;30989283;28;97253;-68
2023/05/28 17:42:38;;;;;;;;;;;;;;;20.32;27.13;100349.88;30986539;28;97382;-66
2023/05/28 17:57:38;;;;;;;;;;;;;;;19.90;28.09;100347.16;30985021;28;98431;-67
2023/05/28 18:12:39;;;;;;;;;;;;;;;19.48;29.34;100350.56;30984351;28;96904;-64
2023/05/28 18:27:39;;;;;;;;;;;;;;;18.98;30.77;100353.34;30983624;28;96675;-68
2023/05/28 18:42:40;;;;;;;;;;;;;;;18.41;32.36;100346.91;30983266;28;97501;-66
2023/05/28 18:57:40;;;;;;;;;;;;;;;17.84;34.52;100365.66;30980389;28;96758;-65
2023/05/28 19:12:41;;;;;;;;;;;;;;;17.27;37.13;100378.06;30978936;28;96987;-65
2023/05/28 19:27:41;;;;;;;;;;;;;;;16.74;37.99;100388.63;30977376;28;96640;-65
2023/05/28 19:42:42;;;;;;;;;;;;;;;16.27;39.94;100394.97;30977195;28;96734;-66
2023/05/28 19:57:42;;;;;;;;;;;;;;;15.84;41.11;100404.94;30976921;28;97063;-66
2023/05/28 20:12:42;;;;;;;;;;;;;;;15.41;42.27;100405.06;30976563;28;96696;-65
2023/05/28 20:27:42;;;;;;;;;;;;;;;15.04;42.61;100420.50;30981448;28;97182;-66
2023/05/28 20:42:45;;;;;;;;;;;;;;;14.77;43.23;100412.22;30995578;28;96730;-64
2023/05/28 20:57:49;;;;;;;;;;;;;;;14.55;43.03;100414.03;30993723;28;97588;-63
2023/05/28 21:12:49;;;;;;;;;;;;;;;14.32;43.50;100438.31;30992346;28;96792;-67
2023/05/28 21:27:50;;;;;;;;;;;;;;;14.11;44.00;100429.22;30991320;28;100548;-67
2023/05/28 21:42:51;;;;;;;;;;;;;;;13.94;44.28;100433.97;30989305;28;96877;-66
2023/05/28 21:57:52;;;;;;;;;;;;;;;13.70;45.27;100425.19;30988217;28;96687;-66
2023/05/28 22:12:52;;;;;;;;;;;;;;;13.47;46.02;100433.31;30987213;28;97548;-66
2023/05/28 22:27:52;;;;;;;;;;;;;;;13.23;47.04;100429.03;30985610;28;96763;-66
2023/05/28 22:42:52;;;;;;;;;;;;;;;13.02;47.76;100421.69;30984428;28;97937;-64
2023/05/28 22:57:53;;;;;;;;;;;;;;;12.82;48.06;100414.16;30982383;28;96676;-65
2023/05/28 23:12:53;;;;;;;;;;;;;;;12.62;48.92;100415.66;30981713;28;98088;-67
2023/05/28 23:27:53;;;;;;;;;;;;;;;12.43;49.56;100428.47;30980647;28;97365;-66
2023/05/28 23:42:53;;;;;;;;;;;;;;;12.25;49.92;100419.91;30978147;28;96925;-67
2023/05/28 23:57:54;;;;;;;;;;;;;;;12.02;50.34;100407.31;30978415;28;97112;-69
